Time;durP1;ratioP1;P1;durP2;ratioP2;P2;SDS_P1;SDS_P2;PMS_P1;PMS_P2;Temp;Humidity;BMP_temperature;BMP_pressure;BME280_temperature;BME280_humidity;BME280_pressure;Samples;Min_cycle;Max_cycle;Signal;HPM_P1;HPM_P2
2023/12/23 00:01:53;;;;;;;4.50;0.80;;;;;;;4.08;95.24;99452.00;5003457;28;20223;-69
2023/12/23 00:04:20;;;;;;;3.90;0.70;;;;;;;4.01;94.63;99450.63;5000614;28;20694;-68
2023/12/23 00:06:46;;;;;;;3.13;0.83;;;;;;;3.97;95.65;99449.09;4999416;28;20582;-70
2023/12/23 00:09:15;;;;;;;4.00;0.53;;;;;;;3.89;96.59;99469.75;5002113;28;20683;-70
2023/12/23 00:11:41;;;;;;;4.30;0.90;;;;;;;3.89;98.09;99472.38;4999854;28;20230;-69
2023/12/23 00:14:08;;;;;;;3.23;1.30;;;;;;;3.88;98.67;99470.69;5007401;28;20709;-69
2023/12/23 00:16:35;;;;;;;5.17;1.00;;;;;;;3.89;97.59;99488.19;5005884;28;20251;-69
2023/12/23 00:19:03;;;;;;;4.10;0.80;;;;;;;3.89;96.30;99490.81;5007425;28;20690;-69
2023/12/23 00:21:30;;;;;;;2.47;0.90;;;;;;;3.86;95.59;99498.03;5004218;28;21760;-69
2023/12/23 00:23:56;;;;;;;7.30;1.03;;;;;;;3.81;95.20;99519.34;5001131;28;20208;-70
2023/12/23 00:26:22;;;;;;;4.13;0.97;;;;;;;3.80;95.46;99522.91;5007981;28;20666;-70
2023/12/23 00:28:49;;;;;;;5.53;0.80;;;;;;;3.77;95.08;99520.44;5003053;28;20202;-70
2023/12/23 00:31:15;;;;;;;4.03;1.00;;;;;;;3.75;95.01;99519.69;5009644;28;20853;-69
2023/12/23 00:33:43;;;;;;;6.27;1.10;;;;;;;3.77;95.19;99530.97;5001953;28;20698;-70
2023/12/23 00:36:11;;;;;;;6.67;0.90;;;;;;;3.75;94.40;99531.06;5010956;28;20417;-70
2023/12/23 00:38:37;;;;;;;4.93;0.90;;;;;;;3.74;94.49;99536.41;4998580;28;20686;-72
2023/12/23 00:41:04;;;;;;;6.70;1.10;;;;;;;3.69;94.62;99548.97;5005650;28;20584;-69
2023/12/23 00:43:30;;;;;;;5.63;1.20;;;;;;;3.69;94.47;99548.97;5004026;28;20214;-69
2023/12/23 00:45:57;;;;;;;4.30;0.80;;;;;;;3.67;93.99;99554.31;4999340;28;20214;-70
2023/12/23 00:48:23;;;;;;;3.63;0.73;;;;;;;3.65;94.00;99552.69;5003976;28;20211;-69
2023/12/23 00:50:50;;;;;;;3.90;0.80;;;;;;;3.65;92.69;99547.41;5003520;28;20223;-70
2023/12/23 00:53:18;;;;;;;4.37;0.60;;;;;;;3.61;91.76;99551.13;5001344;28;20202;-69
2023/12/23 00:55:44;;;;;;;5.33;1.00;;;;;;;3.55;91.34;99549.69;5007543;28;20207;-69
2023/12/23 00:58:11;;;;;;;5.10;0.60;;;;;;;3.52;90.82;99572.69;4997709;28;20569;-69
2023/12/23 01:00:38;;;;;;;4.13;0.77;;;;;;;3.48;90.98;99566.72;5006357;28;20210;-69
2023/12/23 01:03:05;;;;;;;6.03;0.70;;;;;;;3.42;91.74;99583.69;4991294;28;20576;-70
2023/12/23 01:05:31;;;;;;;3.63;0.50;;;;;;;3.41;92.55;99581.97;4999078;28;20203;-69
2023/12/23 01:07:58;;;;;;;2.97;0.87;;;;;;;3.43;93.07;99585.38;5006649;28;20498;-69
2023/12/23 01:10:26;;;;;;;2.40;0.70;;;;;;;3.41;93.82;99596.91;5002150;28;20214;-70
2023/12/23 01:12:52;;;;;;;4.67;0.70;;;;;;;3.39;93.81;99596.16;5005205;28;20582;-69
2023/12/23 01:15:19;;;;;;;3.80;0.80;;;;;;;3.36;94.21;99593.69;5006670;28;20207;-70
2023/12/23 01:17:45;;;;;;;3.50;1.03;;;;;;;3.37;95.08;99596.25;5006469;28;20227;-70
2023/12/23 01:20:12;;;;;;;4.07;1.50;;;;;;;3.35;94.76;99603.34;4999308;28;20235;-70
2023/12/23 01:23:32;;;;;;;6.93;1.90;;;;;;;3.33;94.72;99592.06;5003387;28;20242;-69
2023/12/23 01:25:59;;;;;;;5.73;0.90;;;;;;;3.29;94.26;99614.19;4990771;28;20801;-72
2023/12/23 01:28:26;;;;;;;3.67;1.07;;;;;;;3.28;94.62;99607.22;5001234;28;20207;-72
2023/12/23 01:30:52;;;;;;;5.27;1.00;;;;;;;3.30;94.63;99605.38;5004696;28;20234;-72
2023/12/23 01:33:18;;;;;;;6.40;1.47;;;;;;;3.25;94.16;99617.03;4999490;28;20216;-71
2023/12/23 01:35:44;;;;;;;3.93;0.80;;;;;;;3.26;94.64;99616.09;5000106;28;20217;-72
2023/12/23 01:38:11;;;;;;;5.47;0.93;;;;;;;3.28;94.32;99623.00;5001308;28;20238;-72
2023/12/23 01:40:37;;;;;;;4.27;0.63;;;;;;;3.27;94.88;99605.50;5006549;28;20206;-72
2023/12/23 01:43:04;;;;;;;5.67;1.43;;;;;;;3.29;94.80;99614.19;4997798;28;20210;-72
2023/12/23 01:45:30;;;;;;;6.73;1.10;;;;;;;3.31;94.85;99616.75;4997268;28;20485;-72
2023/12/23 01:47:58;;;;;;;6.77;1.03;;;;;;;3.31;94.05;99612.31;5006209;28;20206;-72
2023/12/23 01:50:26;;;;;;;8.90;1.33;;;;;;;3.32;94.47;99614.03;5000645;28;20207;-72
2023/12/23 01:52:56;;;;;;;8.30;1.47;;;;;;;3.32;94.02;99613.19;5001378;28;20575;-71
2023/12/23 01:55:26;;;;;;;10.67;1.77;;;;;;;3.31;94.45;99614.97;5004591;28;20207;-72
2023/12/23 01:57:53;;;;;;;1.70;0.97;;;;;;;3.30;93.94;99613.25;5004412;28;20348;-72
2023/12/23 02:00:22;;;;;;;7.30;1.30;;;;;;;3.31;93.23;99614.09;5004814;28;20214;-70
2023/12/23 02:02:48;;;;;;;7.47;1.53;;;;;;;3.32;93.20;99603.50;4997410;28;20203;-71
2023/12/23 02:05:16;;;;;;;3.70;0.73;;;;;;;3.36;92.65;99620.84;5003982;28;20213;-71
2023/12/23 02:07:45;;;;;;;8.10;1.40;;;;;;;3.37;91.78;99612.03;5007514;28;20203;-71
2023/12/23 02:10:11;;;;;;;7.33;1.37;;;;;;;3.42;91.65;99615.25;5007644;28;20215;-72
2023/12/23 02:12:48;;;;;;;10.63;1.23;;;;;;;3.48;90.78;99611.47;5007103;28;20746;-72
2023/12/23 02:15:16;;;;;;;8.13;1.47;;;;;;;3.54;89.80;99615.59;4996794;28;20202;-72
2023/12/23 02:17:44;;;;;;;9.30;1.53;;;;;;;3.52;90.03;99614.81;5008717;28;20450;-72
2023/12/23 02:20:11;;;;;;;8.30;1.23;;;;;;;3.55;89.83;99627.81;5006635;28;20238;-72
2023/12/23 02:22:39;;;;;;;5.37;1.40;;;;;;;3.57;89.49;99629.44;5002535;28;20240;-72
2023/12/23 02:25:06;;;;;;;3.50;0.67;;;;;;;3.61;89.08;99619.59;5005410;28;20203;-72
2023/12/23 02:27:39;;;;;;;7.83;1.00;;;;;;;3.65;89.20;99615.88;5009285;28;20214;-72
2023/12/23 02:30:12;;;;;;;6.20;1.20;;;;;;;3.66;89.18;99607.91;5003704;28;20198;-72
2023/12/23 02:32:40;;;;;;;7.57;1.17;;;;;;;3.66;88.97;99618.44;5011800;28;20838;-72
2023/12/23 02:35:07;;;;;;;9.60;1.30;;;;;;;3.66;89.04;99613.16;5006751;28;20203;-72
2023/12/23 02:37:34;;;;;;;4.27;1.10;;;;;;;3.70;89.10;99617.34;5013557;28;20231;-71
2023/12/23 02:40:01;;;;;;;7.47;1.13;;;;;;;3.73;89.96;99618.97;5016153;28;20686;-72
2023/12/23 02:42:28;;;;;;;8.27;1.73;;;;;;;3.76;90.67;99613.56;5013599;28;20225;-71
2023/12/23 02:44:54;;;;;;;8.90;1.40;;;;;;;3.82;90.41;99616.72;5019772;28;20225;-72
2023/12/23 02:47:21;;;;;;;7.17;1.23;;;;;;;3.87;90.86;99615.63;5007743;28;20685;-72
2023/12/23 02:49:47;;;;;;;8.37;1.60;;;;;;;3.87;91.19;99607.72;5018463;28;20206;-73
2023/12/23 02:52:14;;;;;;;6.03;1.63;;;;;;;3.88;91.01;99604.16;5020138;28;20230;-73
2023/12/23 02:54:41;;;;;;;4.43;1.67;;;;;;;3.89;91.17;99606.72;5014091;28;20211;-73
2023/12/23 02:57:09;;;;;;;7.63;1.60;;;;;;;3.91;90.99;99618.03;5008526;28;20231;-72
2023/12/23 02:59:35;;;;;;;7.27;1.93;;;;;;;3.91;90.29;99612.75;5017071;28;20401;-72
2023/12/23 03:02:01;;;;;;;7.67;1.13;;;;;;;3.93;89.80;99610.91;5016373;28;20218;-72
2023/12/23 03:04:29;;;;;;;6.13;1.37;;;;;;;3.94;90.10;99612.56;5019015;28;20222;-73
2023/12/23 03:06:55;;;;;;;7.07;1.13;;;;;;;3.96;89.72;99615.97;5018180;28;20293;-72
2023/12/23 03:09:21;;;;;;;7.80;2.00;;;;;;;4.00;88.82;99617.53;5015966;28;20414;-72
2023/12/23 03:11:49;;;;;;;11.47;1.50;;;;;;;4.04;88.37;99599.78;5017141;28;20226;-72
2023/12/23 03:14:17;;;;;;;10.83;1.80;;;;;;;4.06;87.66;99609.31;5013846;28;20199;-73
2023/12/23 03:16:44;;;;;;;9.50;1.10;;;;;;;4.06;87.50;99605.81;5016521;28;20207;-72
2023/12/23 03:19:10;;;;;;;10.43;1.60;;;;;;;4.12;86.46;99600.22;5018166;28;20229;-73
2023/12/23 03:21:42;;;;;;;5.00;1.57;;;;;;;4.10;86.17;99605.59;5016474;28;21003;-72
2023/12/23 03:24:09;;;;;;;8.03;1.40;;;;;;;4.11;86.89;99588.00;5010382;28;20262;-73
2023/12/23 03:26:35;;;;;;;9.50;1.80;;;;;;;4.14;87.19;99598.34;5015011;28;20285;-73
2023/12/23 03:29:02;;;;;;;7.00;1.57;;;;;;;4.16;88.23;99599.09;5018460;28;20199;-73
2023/12/23 03:31:29;;;;;;;10.57;1.60;;;;;;;4.18;89.11;99587.56;5013728;28;20268;-72
2023/12/23 03:33:56;;;;;;;9.47;2.17;;;;;;;4.19;90.00;99602.44;5017772;28;20206;-73
2023/12/23 03:36:23;;;;;;;6.23;1.20;;;;;;;4.24;90.25;99596.06;5013155;28;20202;-73
2023/12/23 03:38:49;;;;;;;9.83;1.73;;;;;;;4.23;89.97;99586.47;5014151;28;20635;-72
2023/12/23 03:41:16;;;;;;;9.13;2.67;;;;;;;4.23;90.32;99589.09;5015251;28;20230;-73
2023/12/23 03:43:42;;;;;;;4.67;1.30;;;;;;;4.24;90.12;99599.56;5013310;28;20355;-73
2023/12/23 03:46:09;;;;;;;8.90;1.40;;;;;;;4.24;90.36;99603.97;5006524;28;20599;-72
2023/12/23 03:48:37;;;;;;;7.93;1.83;;;;;;;4.22;91.23;99585.63;5013320;28;20226;-71
2023/12/23 03:51:03;;;;;;;4.93;1.20;;;;;;;4.27;91.40;99583.59;5018810;28;20229;-73
2023/12/23 03:53:30;;;;;;;4.10;1.00;;;;;;;4.27;92.05;99573.03;5009558;28;20211;-73
2023/12/23 03:55:56;;;;;;;5.73;1.10;;;;;;;4.24;91.97;99577.63;5013029;28;20206;-73
2023/12/23 03:58:23;;;;;;;7.43;1.27;;;;;;;4.26;92.28;99573.97;5010932;28;20226;-71
2023/12/23 04:00:49;;;;;;;5.50;1.10;;;;;;;4.24;93.12;99573.22;5013116;28;20231;-73
2023/12/23 04:03:16;;;;;;;5.27;1.43;;;;;;;4.28;93.71;99566.00;5014829;28;20211;-73
2023/12/23 04:05:43;;;;;;;11.90;1.30;;;;;;;4.29;93.17;99567.69;5013971;28;20202;-72
2023/12/23 04:08:10;;;;;;;7.50;1.37;;;;;;;4.28;93.69;99563.34;5011948;28;20245;-72
2023/12/23 04:10:37;;;;;;;7.87;1.87;;;;;;;4.30;93.65;99564.94;5011907;28;20686;-72
2023/12/23 04:13:04;;;;;;;9.90;1.43;;;;;;;4.29;94.22;99558.00;5016380;28;20209;-73
2023/12/23 04:15:30;;;;;;;5.57;1.10;;;;;;;4.30;94.57;99557.03;5012966;28;20226;-72
2023/12/23 04:17:57;;;;;;;7.63;1.10;;;;;;;4.30;95.17;99561.50;5015079;28;20229;-72
2023/12/23 04:20:23;;;;;;;8.63;1.07;;;;;;;4.30;95.59;99558.84;5005594;28;20215;-72
2023/12/23 04:22:51;;;;;;;10.07;1.97;;;;;;;4.30;95.31;99554.41;5013168;28;20211;-72
2023/12/23 04:25:17;;;;;;;7.97;1.43;;;;;;;4.26;96.30;99562.59;5011761;28;20219;-74
2023/12/23 04:27:44;;;;;;;10.17;1.93;;;;;;;4.24;96.44;99564.44;5017887;28;20202;-72
2023/12/23 04:30:11;;;;;;;4.47;1.00;;;;;;;4.22;96.85;99561.03;5013426;28;20829;-72
2023/12/23 04:32:38;;;;;;;4.57;1.00;;;;;;;4.24;97.78;99554.75;5014426;28;20226;-72
2023/12/23 04:35:05;;;;;;;8.50;1.33;;;;;;;4.23;98.26;99553.06;5015494;28;20202;-72
2023/12/23 04:37:32;;;;;;;5.43;1.20;;;;;;;4.24;98.99;99556.53;5014116;28;20258;-71
2023/12/23 04:39:59;;;;;;;4.03;1.00;;;;;;;4.21;99.22;99548.81;5016706;28;20203;-72
2023/12/23 04:42:26;;;;;;;5.03;0.87;;;;;;;4.19;99.84;99546.25;5014169;28;20226;-71
2023/12/23 04:44:52;;;;;;;7.17;1.57;;;;;;;4.19;100.00;99554.16;5014823;28;20208;-72
2023/12/23 04:47:19;;;;;;;6.63;1.23;;;;;;;4.18;100.00;99550.66;5017145;28;20548;-71
2023/12/23 04:49:45;;;;;;;5.63;1.03;;;;;;;4.17;100.00;99548.09;5016070;28;20209;-72
2023/12/23 04:52:12;;;;;;;6.83;0.90;;;;;;;4.17;100.00;99540.19;5013781;28;20235;-72
2023/12/23 04:54:38;;;;;;;4.97;0.90;;;;;;;4.16;100.00;99539.34;5012446;28;20213;-70
2023/12/23 04:57:06;;;;;;;5.37;1.10;;;;;;;4.16;100.00;99538.50;5016607;28;20233;-71
2023/12/23 04:59:33;;;;;;;4.67;1.20;;;;;;;4.13;100.00;99547.41;5018661;28;20253;-71
2023/12/23 05:01:59;;;;;;;5.97;1.10;;;;;;;4.13;100.00;99539.50;5012930;28;20298;-72
2023/12/23 05:04:25;;;;;;;4.30;1.10;;;;;;;4.12;100.00;99537.81;5013100;28;20199;-72
2023/12/23 05:06:52;;;;;;;7.00;1.00;;;;;;;4.13;100.00;99536.88;5018159;28;20236;-71
2023/12/23 05:09:18;;;;;;;5.40;0.97;;;;;;;4.14;100.00;99525.41;5013286;28;20210;-72
2023/12/23 05:11:45;;;;;;;7.73;1.37;;;;;;;4.14;100.00;99530.69;5016432;28;20233;-72
2023/12/23 05:14:12;;;;;;;5.63;0.90;;;;;;;4.14;100.00;99521.91;5015391;28;20217;-71
2023/12/23 05:16:39;;;;;;;7.30;1.10;;;;;;;4.13;100.00;99518.44;5018326;28;20206;-72
2023/12/23 05:19:05;;;;;;;4.43;0.97;;;;;;;4.12;100.00;99511.47;5014420;28;20437;-72
2023/12/23 05:21:32;;;;;;;6.57;0.90;;;;;;;4.12;100.00;99511.47;5017158;28;20230;-69
2023/12/23 05:23:58;;;;;;;4.27;1.30;;;;;;;4.12;100.00;99511.47;5011082;28;20211;-69
2023/12/23 05:26:25;;;;;;;5.23;1.20;;;;;;;4.11;100.00;99504.53;5014821;28;20211;-70
2023/12/23 05:28:51;;;;;;;9.30;1.73;;;;;;;4.13;100.00;99499.13;5013634;28;20217;-69
2023/12/23 05:31:19;;;;;;;6.13;1.27;;;;;;;4.16;100.00;99501.59;5014505;28;20702;-69
2023/12/23 05:33:46;;;;;;;5.03;1.27;;;;;;;4.17;100.00;99492.78;5016517;28;20198;-69
2023/12/23 05:36:13;;;;;;;7.10;1.53;;;;;;;4.17;100.00;99493.63;5015741;28;20206;-69
2023/12/23 05:38:39;;;;;;;3.17;0.87;;;;;;;4.17;100.00;99490.13;5013584;28;20222;-70
2023/12/23 05:41:06;;;;;;;5.20;1.17;;;;;;;4.17;100.00;99487.50;5015729;28;20234;-70
2023/12/23 05:43:32;;;;;;;3.83;1.17;;;;;;;4.17;100.00;99482.22;5013406;28;20608;-69
2023/12/23 05:45:58;;;;;;;7.53;1.13;;;;;;;4.15;100.00;99484.09;5017398;28;20205;-70
2023/12/23 05:48:27;;;;;;;3.67;0.70;;;;;;;4.21;100.00;99477.66;5009797;28;20210;-70
2023/12/23 05:50:53;;;;;;;5.37;0.73;;;;;;;4.22;100.00;99489.88;5010270;28;20222;-69
2023/12/23 05:53:19;;;;;;;2.47;0.50;;;;;;;4.24;100.00;99467.78;5009650;28;20211;-69
2023/12/23 05:55:46;;;;;;;5.33;0.70;;;;;;;4.23;100.00;99465.25;5010711;28;20212;-69
2023/12/23 05:58:12;;;;;;;2.47;0.87;;;;;;;4.24;100.00;99466.94;5013534;28;20226;-70
2023/12/23 06:00:39;;;;;;;4.60;0.60;;;;;;;4.23;100.00;99458.19;5014537;28;20470;-70
2023/12/23 06:03:05;;;;;;;3.93;0.87;;;;;;;4.25;100.00;99468.63;5011964;28;20215;-69
2023/12/23 06:05:33;;;;;;;4.20;0.93;;;;;;;4.22;100.00;99464.38;5005439;28;20699;-69
2023/12/23 06:07:59;;;;;;;3.87;0.83;;;;;;;4.22;100.00;99459.13;5017737;28;20209;-69
2023/12/23 06:10:26;;;;;;;4.87;0.97;;;;;;;4.21;100.00;99461.84;5017128;28;20202;-70
2023/12/23 06:12:52;;;;;;;5.17;1.60;;;;;;;4.21;100.00;99456.56;5012919;28;20289;-69
2023/12/23 06:15:19;;;;;;;3.20;1.07;;;;;;;4.21;100.00;99448.66;5007982;28;20209;-70
2023/12/23 06:17:48;;;;;;;2.37;0.60;;;;;;;4.23;100.00;99449.44;5011457;28;20612;-69
2023/12/23 06:20:14;;;;;;;2.80;0.67;;;;;;;4.22;100.00;99451.22;5013898;28;20213;-69
2023/12/23 06:22:42;;;;;;;3.10;1.00;;;;;;;4.18;100.00;99444.41;5017040;28;20261;-69
2023/12/23 06:25:09;;;;;;;2.07;0.50;;;;;;;4.15;100.00;99439.31;5014101;28;20674;-69
2023/12/23 06:27:35;;;;;;;0.90;0.53;;;;;;;4.16;100.00;99439.22;5017879;28;20210;-69
2023/12/23 06:30:02;;;;;;;2.23;0.50;;;;;;;4.16;100.00;99433.09;5016142;28;20198;-69
2023/12/23 06:32:28;;;;;;;2.87;0.50;;;;;;;4.14;100.00;99430.56;5014955;28;20234;-69
2023/12/23 06:34:54;;;;;;;1.87;0.60;;;;;;;4.11;100.00;99424.63;5014717;28;20276;-69
2023/12/23 06:37:21;;;;;;;1.37;0.67;;;;;;;4.09;100.00;99426.50;5011159;28;20206;-69
2023/12/23 06:39:49;;;;;;;1.97;0.53;;;;;;;4.13;100.00;99422.72;5013003;28;20843;-69
2023/12/23 06:42:15;;;;;;;3.37;0.77;;;;;;;4.11;100.00;99414.94;5017543;28;20716;-69
2023/12/23 06:44:43;;;;;;;3.07;0.40;;;;;;;4.06;100.00;99416.13;5012908;28;20211;-69
2023/12/23 06:47:09;;;;;;;1.10;0.50;;;;;;;4.03;100.00;99403.97;5014103;28;20218;-69
2023/12/23 06:49:36;;;;;;;3.83;0.57;;;;;;;4.03;100.00;99408.38;5010627;28;20215;-70
2023/12/23 06:52:02;;;;;;;3.93;0.50;;;;;;;4.03;100.00;99403.97;5017428;28;20253;-70
2023/12/23 06:54:29;;;;;;;0.97;0.50;;;;;;;4.00;100.00;99401.50;5014398;28;20253;-69
2023/12/23 06:56:56;;;;;;;1.37;0.50;;;;;;;3.97;100.00;99406.94;5015945;28;20213;-69
2023/12/23 06:59:23;;;;;;;1.67;0.50;;;;;;;3.95;100.00;99395.63;5015113;28;20246;-69
2023/12/23 07:01:49;;;;;;;1.83;0.50;;;;;;;3.95;100.00;99405.31;5017177;28;20226;-69
2023/12/23 07:04:16;;;;;;;1.70;0.47;;;;;;;3.91;100.00;99399.41;5019722;28;20254;-69
2023/12/23 07:06:42;;;;;;;1.03;0.40;;;;;;;3.89;100.00;99398.63;5020605;28;20217;-69
2023/12/23 07:09:09;;;;;;;1.07;0.43;;;;;;;3.86;100.00;99383.00;5015814;28;20211;-69
2023/12/23 07:11:36;;;;;;;2.33;0.73;;;;;;;3.86;100.00;99390.91;5015859;28;20640;-69
2023/12/23 07:14:04;;;;;;;1.50;0.60;;;;;;;3.84;100.00;99388.34;5020831;28;20430;-69
2023/12/23 07:16:30;;;;;;;1.47;0.60;;;;;;;3.84;100.00;99382.22;5015941;28;20296;-70
2023/12/23 07:18:57;;;;;;;0.60;0.30;;;;;;;3.84;100.00;99376.97;5012760;28;20722;-69
2023/12/23 07:21:23;;;;;;;1.03;0.53;;;;;;;3.84;100.00;99369.06;5012520;28;20324;-69
2023/12/23 07:23:49;;;;;;;0.90;0.20;;;;;;;3.86;100.00;99380.38;5014454;28;20209;-70
2023/12/23 07:26:16;;;;;;;2.73;0.80;;;;;;;3.82;100.00;99373.56;5017635;28;20534;-70
2023/12/23 07:28:44;;;;;;;1.57;0.60;;;;;;;3.79;100.00;99360.56;5015005;28;20195;-70
2023/12/23 07:31:12;;;;;;;1.50;0.30;;;;;;;3.80;100.00;99365.75;5017013;28;20600;-70
2023/12/23 07:33:38;;;;;;;1.80;0.40;;;;;;;3.79;100.00;99356.16;5013600;28;20261;-70
2023/12/23 07:36:05;;;;;;;0.70;0.30;;;;;;;3.79;100.00;99347.41;5016387;28;20221;-70
2023/12/23 07:38:32;;;;;;;1.00;0.30;;;;;;;3.78;100.00;99349.19;5013303;28;20233;-69
2023/12/23 07:40:58;;;;;;;1.07;0.20;;;;;;;3.78;100.00;99349.19;5011744;28;20238;-69
2023/12/23 07:43:25;;;;;;;1.27;0.40;;;;;;;3.77;100.00;99354.53;5014641;28;20206;-69
2023/12/23 07:45:51;;;;;;;2.43;0.40;;;;;;;3.76;100.00;99355.50;5013024;28;20861;-69
2023/12/23 07:48:19;;;;;;;0.87;0.50;;;;;;;3.75;100.00;99361.69;5017905;28;20206;-70
2023/12/23 07:50:46;;;;;;;1.23;0.30;;;;;;;3.74;100.00;99352.94;5019099;28;20226;-69
2023/12/23 07:53:12;;;;;;;0.87;0.50;;;;;;;3.72;100.00;99344.28;5017701;28;20206;-69
2023/12/23 07:55:39;;;;;;;0.27;0.20;;;;;;;3.73;100.00;99337.22;5014233;28;20225;-69
2023/12/23 07:58:06;;;;;;;0.30;0.30;;;;;;;3.70;100.00;99342.66;5019150;28;20202;-70
2023/12/23 08:00:32;;;;;;;0.20;0.20;;;;;;;3.67;100.00;99341.03;5013580;28;20553;-70
2023/12/23 08:02:59;;;;;;;1.07;0.30;;;;;;;3.67;100.00;99346.31;5018961;28;20213;-70
2023/12/23 08:05:31;;;;;;;0.77;0.70;;;;;;;3.67;100.00;99345.47;5013943;28;20690;-70
2023/12/23 08:07:57;;;;;;;1.40;0.70;;;;;;;3.65;100.00;99360.50;5020653;28;20204;-70
2023/12/23 08:10:24;;;;;;;0.40;0.40;;;;;;;3.62;100.00;99348.34;5016260;28;20207;-69
2023/12/23 08:12:50;;;;;;;0.20;0.20;;;;;;;3.63;100.00;99346.56;5015338;28;20204;-70
2023/12/23 08:15:17;;;;;;;1.13;0.30;;;;;;;3.61;100.00;99351.91;5015236;28;20209;-69
2023/12/23 08:17:44;;;;;;;0.33;0.30;;;;;;;3.61;100.00;99346.63;5012619;28;20203;-70
2023/12/23 08:20:11;;;;;;;0.50;0.27;;;;;;;3.56;100.00;99337.31;5018004;28;20705;-69
2023/12/23 08:22:40;;;;;;;0.50;0.33;;;;;;;3.53;100.00;99348.88;5015475;28;20233;-69
2023/12/23 08:25:14;;;;;;;0.20;0.20;;;;;;;3.47;100.00;99347.41;5018258;28;20213;-69
2023/12/23 08:27:41;;;;;;;0.97;0.27;;;;;;;3.44;100.00;99351.97;5013699;28;21538;-69
2023/12/23 08:30:09;;;;;;;1.13;0.50;;;;;;;3.40;100.00;99359.19;5016963;28;20596;-69
2023/12/23 08:32:36;;;;;;;0.47;0.20;;;;;;;3.38;100.00;99354.97;5016622;28;20241;-69
2023/12/23 08:35:02;;;;;;;0.37;0.20;;;;;;;3.31;100.00;99343.91;5017926;28;20206;-69
2023/12/23 08:37:29;;;;;;;0.20;0.20;;;;;;;3.28;100.00;99341.44;5011822;28;20557;-69
2023/12/23 08:39:57;;;;;;;0.30;0.30;;;;;;;3.23;100.00;99356.63;5014924;28;20736;-69
2023/12/23 08:42:23;;;;;;;0.20;0.20;;;;;;;3.20;100.00;99355.97;5011726;28;20234;-69
2023/12/23 08:44:50;;;;;;;0.40;0.30;;;;;;;3.13;100.00;99353.66;5016188;28;20214;-69
2023/12/23 08:47:16;;;;;;;1.07;0.40;;;;;;;3.11;100.00;99357.28;5013048;28;20593;-69
2023/12/23 08:49:42;;;;;;;0.77;0.50;;;;;;;3.06;100.00;99347.00;5013851;28;20194;-68
2023/12/23 08:52:09;;;;;;;0.70;0.60;;;;;;;3.03;100.00;99355.09;5013142;28;20281;-69
2023/12/23 08:54:35;;;;;;;0.67;0.50;;;;;;;2.97;100.00;99344.03;5013486;28;20211;-69
2023/12/23 08:57:04;;;;;;;0.90;0.60;;;;;;;2.95;100.00;99352.00;5010553;28;20210;-69
2023/12/23 08:59:30;;;;;;;0.60;0.50;;;;;;;2.94;100.00;99349.44;5013033;28;20242;-68
2023/12/23 09:02:01;;;;;;;0.50;0.40;;;;;;;2.89;100.00;99352.31;5015448;28;20230;-68
2023/12/23 09:04:27;;;;;;;1.20;0.57;;;;;;;2.85;100.00;99344.69;5013084;28;20205;-69
2023/12/23 09:06:54;;;;;;;0.70;0.70;;;;;;;2.82;100.00;99358.00;5013482;28;20203;-69
2023/12/23 09:09:20;;;;;;;1.97;1.03;;;;;;;2.79;100.00;99361.63;5013462;28;20237;-68
2023/12/23 09:11:46;;;;;;;1.53;0.60;;;;;;;2.76;100.00;99357.38;5005675;28;20548;-69
2023/12/23 09:14:14;;;;;;;1.30;0.70;;;;;;;2.71;100.00;99358.53;5013925;28;20206;-71
2023/12/23 09:16:41;;;;;;;0.70;0.70;;;;;;;2.70;100.00;99356.84;5010371;28;20265;-68
2023/12/23 09:19:07;;;;;;;1.40;0.80;;;;;;;2.69;100.00;99350.72;5012776;28;20238;-68
2023/12/23 09:21:34;;;;;;;1.57;1.20;;;;;;;2.66;100.00;99347.44;5009700;28;20234;-69
2023/12/23 09:24:00;;;;;;;1.80;1.27;;;;;;;2.63;100.00;99351.06;5013608;28;20199;-68
2023/12/23 09:26:27;;;;;;;1.33;1.00;;;;;;;2.62;100.00;99344.09;5011401;28;20278;-69
2023/12/23 09:28:53;;;;;;;1.53;0.70;;;;;;;2.60;100.00;99356.47;5013920;28;20681;-69
2023/12/23 09:31:21;;;;;;;1.70;1.10;;;;;;;2.59;100.00;99353.91;5013294;28;20228;-68
2023/12/23 09:33:47;;;;;;;1.33;1.10;;;;;;;2.59;100.00;99364.44;5007493;28;20215;-68
2023/12/23 09:36:14;;;;;;;2.53;1.70;;;;;;;2.58;100.00;99355.69;5011669;28;20210;-69
2023/12/23 09:38:40;;;;;;;1.40;1.30;;;;;;;2.58;100.00;99366.22;5009687;28;20208;-69
2023/12/23 09:41:07;;;;;;;1.43;0.97;;;;;;;2.57;100.00;99377.66;5013818;28;20245;-68
2023/12/23 09:43:34;;;;;;;2.00;0.93;;;;;;;2.55;100.00;99379.50;5011298;28;20210;-68
2023/12/23 09:46:03;;;;;;;2.47;1.83;;;;;;;2.55;100.00;99382.13;5016207;28;20217;-68
2023/12/23 09:48:31;;;;;;;1.47;1.37;;;;;;;2.54;100.00;99382.22;5013971;28;20206;-68
2023/12/23 09:50:57;;;;;;;1.80;1.57;;;;;;;2.53;100.00;99405.00;5018099;28;20219;-69
2023/12/23 09:53:27;;;;;;;2.00;1.70;;;;;;;2.51;100.00;99398.97;5008645;28;20197;-69
2023/12/23 09:55:53;;;;;;;1.93;1.50;;;;;;;2.51;100.00;99404.22;5013345;28;20200;-68
2023/12/23 09:58:20;;;;;;;1.20;1.10;;;;;;;2.53;100.00;99406.78;5014779;28;20212;-68
2023/12/23 10:00:47;;;;;;;1.23;1.13;;;;;;;2.50;100.00;99399.94;5009622;28;20289;-68
2023/12/23 10:03:14;;;;;;;1.20;0.90;;;;;;;2.49;100.00;99398.22;5010382;28;20214;-68
2023/12/23 10:05:43;;;;;;;1.10;0.60;;;;;;;2.45;100.00;99388.78;5014419;28;20206;-69
2023/12/23 10:08:10;;;;;;;0.63;0.60;;;;;;;2.42;100.00;99395.03;5013371;28;20232;-68
2023/12/23 10:10:36;;;;;;;0.70;0.70;;;;;;;2.40;100.00;99396.03;5012750;28;20205;-69
2023/12/23 10:13:03;;;;;;;1.30;0.60;;;;;;;2.37;100.00;99390.94;5014566;28;20297;-69
2023/12/23 10:15:29;;;;;;;0.87;0.77;;;;;;;2.36;100.00;99405.84;5013916;28;20233;-69
2023/12/23 10:17:57;;;;;;;1.63;0.80;;;;;;;2.34;100.00;99401.59;5012499;28;20301;-72
2023/12/23 10:20:23;;;;;;;0.70;0.70;;;;;;;2.34;100.00;99409.47;5014557;28;20227;-68
2023/12/23 10:22:51;;;;;;;1.00;0.90;;;;;;;2.36;100.00;99405.00;5015259;28;20214;-69
2023/12/23 10:25:17;;;;;;;1.80;1.50;;;;;;;2.31;100.00;99401.78;5014576;28;20238;-68
2023/12/23 10:27:44;;;;;;;1.83;1.47;;;;;;;2.31;100.00;99401.78;5020543;28;20226;-68
2023/12/23 10:30:12;;;;;;;1.37;1.10;;;;;;;2.30;100.00;99394.81;5012997;28;20207;-69
2023/12/23 10:32:40;;;;;;;1.80;1.10;;;;;;;2.29;100.00;99404.47;5020105;28;20254;-68
2023/12/23 10:35:07;;;;;;;0.90;0.80;;;;;;;2.29;100.00;99414.13;5015524;28;20198;-68
2023/12/23 10:37:34;;;;;;;1.87;1.00;;;;;;;2.28;100.00;99405.41;5015324;28;20211;-69
2023/12/23 10:40:10;;;;;;;4.07;1.80;;;;;;;2.29;100.00;99414.13;5012816;28;20227;-68
2023/12/23 10:42:39;;;;;;;1.87;1.17;;;;;;;2.32;100.00;99409.59;5019798;28;20276;-71
2023/12/23 10:45:07;;;;;;;2.43;1.60;;;;;;;2.35;100.00;99414.66;5001771;28;20674;-69
2023/12/23 10:47:35;;;;;;;2.57;1.50;;;;;;;2.37;100.00;99414.59;5009536;28;20207;-68
2023/12/23 10:50:02;;;;;;;2.67;1.17;;;;;;;2.37;100.00;99411.97;5002732;28;20203;-68
2023/12/23 10:52:30;;;;;;;1.73;1.20;;;;;;;2.36;100.00;99415.50;5004002;28;20320;-69
2023/12/23 10:54:56;;;;;;;1.60;1.00;;;;;;;2.37;100.00;99411.97;5005571;28;20212;-69
2023/12/23 10:57:26;;;;;;;0.77;0.70;;;;;;;2.39;100.00;99410.09;5006706;28;20234;-69
2023/12/23 10:59:52;;;;;;;1.00;0.80;;;;;;;2.41;100.00;99416.16;5009063;28;20238;-69
2023/12/23 11:02:20;;;;;;;1.53;1.17;;;;;;;2.44;100.00;99422.09;5007487;28;20234;-70
2023/12/23 11:04:49;;;;;;;1.53;0.87;;;;;;;2.46;100.00;99415.91;5009206;28;20478;-69
2023/12/23 11:07:18;;;;;;;1.00;0.80;;;;;;;2.47;100.00;99415.00;5006305;28;20666;-70
2023/12/23 11:09:47;;;;;;;1.30;0.90;;;;;;;2.48;100.00;99414.91;5005578;28;20202;-72
2023/12/23 11:12:15;;;;;;;1.60;0.70;;;;;;;2.53;100.00;99422.56;5005412;28;20238;-69
2023/12/23 11:14:43;;;;;;;1.73;0.60;;;;;;;2.55;100.00;99436.47;5005924;28;20697;-69
2023/12/23 11:17:23;;;;;;;1.43;0.60;;;;;;;2.57;100.00;99427.59;5008145;28;20207;-69
2023/12/23 11:19:50;;;;;;;1.47;0.57;;;;;;;2.62;100.00;99428.22;5014774;28;20230;-71
2023/12/23 11:22:28;;;;;;;1.40;0.60;;;;;;;2.64;100.00;99426.38;5000270;28;20242;-68
2023/12/23 11:24:55;;;;;;;1.20;0.70;;;;;;;2.67;100.00;99431.47;5002874;28;20211;-70
2023/12/23 11:27:32;;;;;;;0.77;0.43;;;;;;;2.69;100.00;99424.34;5005453;28;20508;-69
2023/12/23 11:30:01;;;;;;;0.50;0.50;;;;;;;2.71;100.00;99429.50;4998919;28;20214;-70
2023/12/23 11:32:33;;;;;;;1.70;0.87;;;;;;;2.72;100.00;99424.19;5004852;28;20298;-72
2023/12/23 11:34:59;;;;;;;1.07;0.70;;;;;;;2.75;100.00;99428.44;4995404;28;20214;-70
2023/12/23 11:37:47;;;;;;;2.07;1.30;;;;;;;2.79;100.00;99430.00;5005941;28;20207;-71